Terminal Aerodrome Forecast
Issued by NWS

Home | Current Version | Previous Version | Text Only | Print | Product List | Glossary On
Versions: 1 2 3 4 5 6 7 8 9 10 11 12 13
000
FTUS41 KLWX 051141
TAFMTN
TAF
KMTN 051141Z 0512/0612 06012KT P6SM BKN025
     FM051500 07011KT P6SM BKN040
     FM051700 08010KT P6SM SCT045
     FM052300 12011KT P6SM SCT080
     FM060400 10007KT P6SM FEW250
     FM061100 04007KT P6SM FEW250=

USA.gov is the U.S. government's official web portal to all federal, state and local government web resources and services.